West Chicago, IL

07:14 CDT le 01 octobre 2014 (GMT -0500)
Du Page | Change Station
CLOSE
Current Station
Aéroport
Location: Chicago DuPage,
Altitude: 758 ft
Stations météo à proximité

Alt. 758 ft 41.90 °N, 88.25 °W | Updated 1 hour ago

Ciel dégagé
Ciel dégagé
49 ° F
Paraît 49 ° F
N
6
Vent Variable Vent de ESE

Aujourd'hui
Haut(e) -- | Bas -- ° F
--% Risque de précip.
Hier
Haut(e) -- | Bas -- ° F
Precip. -- pouce
6:49 AM 6:34 PM
Lune montante, 47% visible
Pression 30.00 pouce
Visibilité 10.0 Miles terrestres
Nuages Ciel dégagé
Point de rosée 44 ° F
Humidité 83%
Précipitations 0.00 pouce
Profondeur de la couche neigeuse Non disponible.
UV 0 sur 12
Pollen 2.80 sur 12
Ozone Bon
PM2.5 Bon
Flu Activity Non disponible.
METAR KDPA 011052Z 11005KT 10SM CLR 09/07 A2999 RMK AO2 SLP158 T00940067

More Conditions Fewer Conditions

Pression 30.00 pouce
Visibilité 10.0 Miles terrestres
Nuages Ciel dégagé
Point de rosée 44 ° F
Humidité 83%
Précipitations 0.00 pouce
Profondeur de la couche neigeuse Non disponible.
UV 0 sur 12
Pollen 2.80 sur 12
Ozone Bon
PM2.5 Bon
Flu Activity Non disponible.
METAR KDPA 011052Z 11005KT 10SM CLR 09/07 A2999 RMK AO2 SLP158 T00940067

More Conditions Fewer Conditions

10-Day Weather Forecast

Almanac

Astronomie

Oct. 01, 2014 Lever Coucher
Temps réel 06:49 CDT 18:34 CDT
Crépuscule civil 06:22 CDT 19:02 CDT
Crépuscule nautique 05:49 CDT 19:34 CDT
Crépuscule astronomique 05:17 CDT 20:07 CDT
Lune 13:54 CDT Pas de coucher de lune
Durée de lumière visible 12h 40m
Longueur du jour
11h 44m
Tomorrow will be 2m 47s shorter.
Lune montante, 47% of the Moon is Illuminated
Aujourd'hui
Lune montante
Oct 1
Premier quartier
Oct 8
Pleine lune
Oct 15
Dernier quartier
Oct 23
Nouveau

Extrêmes aujourd'hui

State Highs State Lows

Community

WunderPhotos

Upload Photos

1,757,914 Photos téléchargées !

WunderBlogs® & News

Nearby

Qualité de l'air

  Qualité de l'air Indice de la qualité de l'air Polluant
Hier Bon
PM2.5
Hier Bon
OZONE
Actuel Bon
PM2.5
Actuel Bon
OZONE
mercredi Bon
PM2.5
jeudi Moyen
PM2.5
vendredi Bon
PM2.5
samedi Bon
PM2.5

Épaisseur de neige

Station Depth Altitude
Pas de nouvelles chutes de neige

Activité sismique

Ville Distance Mag. Time & Date
No recent earthquake activity has been reported nearby.
Minimum magnitude displayed is 2.5.

Températures des eaux côtières

Lieu Température
Aucun rapport de station

Stations météo à proximité